Time;durP1;ratioP1;P1;durP2;ratioP2;P2;SDS_P1;SDS_P2;PMS_P1;PMS_P2;Temp;Humidity;BMP_temperature;BMP_pressure;BME280_temperature;BME280_humidity;BME280_pressure;Samples;Min_cycle;Max_cycle;Signal;HPM_P1;HPM_P2
2022/05/09 00:01:07;;;;;;;4.20;2.63;;;;;;;14.42;34.54;101738.91;5084554;28;20420;-59
2022/05/09 00:03:34;;;;;;;5.10;2.53;;;;;;;14.39;34.51;101738.41;5084662;28;20923;-60
2022/05/09 00:06:03;;;;;;;4.28;2.40;;;;;;;14.34;34.59;101739.72;5084769;28;20540;-59
2022/05/09 00:08:30;;;;;;;4.90;2.55;;;;;;;14.26;34.93;101739.75;5085605;28;20421;-59
2022/05/09 00:10:57;;;;;;;5.28;2.22;;;;;;;14.24;34.81;101739.09;5085577;28;20450;-59
2022/05/09 00:13:23;;;;;;;5.72;2.50;;;;;;;14.22;35.09;101745.59;5085432;28;20449;-60
2022/05/09 00:15:50;;;;;;;6.30;2.38;;;;;;;14.18;35.33;101744.28;5083214;28;20912;-59
2022/05/09 00:18:19;;;;;;;4.15;2.50;;;;;;;14.11;35.11;101736.94;5070898;28;20473;-59
2022/05/09 00:20:47;;;;;;;5.88;3.00;;;;;;;14.10;35.24;101743.28;5071976;28;20419;-60
2022/05/09 00:23:15;;;;;;;7.05;2.85;;;;;;;14.08;35.66;101736.44;5069453;28;20436;-60
2022/05/09 00:25:42;;;;;;;3.93;2.40;;;;;;;14.05;35.30;101742.94;5070491;28;20926;-59
2022/05/09 00:28:09;;;;;;;5.00;2.93;;;;;;;14.02;35.70;101743.25;5070230;28;20523;-59
2022/05/09 00:30:36;;;;;;;4.77;2.80;;;;;;;14.00;35.54;101745.28;5070208;28;20495;-60
2022/05/09 00:33:03;;;;;;;4.37;3.00;;;;;;;14.01;36.17;101740.75;5069866;28;20448;-60
2022/05/09 00:35:30;;;;;;;4.00;2.92;;;;;;;14.02;36.16;101737.94;5071524;28;20419;-60
2022/05/09 00:37:57;;;;;;;6.03;3.30;;;;;;;14.02;36.35;101743.25;5071591;28;20770;-59
2022/05/09 00:40:25;;;;;;;5.70;3.10;;;;;;;14.01;36.35;101738.94;5071423;28;20415;-60
2022/05/09 00:42:54;;;;;;;4.90;3.30;;;;;;;13.96;36.20;101736.78;5070516;28;20410;-59
2022/05/09 00:45:23;;;;;;;5.25;3.00;;;;;;;13.94;36.26;101748.63;5067069;28;20466;-59
2022/05/09 00:47:50;;;;;;;7.53;2.92;;;;;;;13.91;36.54;101747.09;5071574;28;20458;-59
2022/05/09 00:50:23;;;;;;;6.68;3.00;;;;;;;13.91;36.53;101741.78;5070493;28;20506;-59
2022/05/09 00:52:58;;;;;;;5.10;2.90;;;;;;;13.91;36.11;101747.09;5071214;28;20514;-59
2022/05/09 00:55:29;;;;;;;6.93;3.03;;;;;;;13.94;36.42;101740.63;5069780;28;20881;-58
2022/05/09 00:58:04;;;;;;;4.60;2.63;;;;;;;13.94;36.01;101738.78;5057966;28;20413;-59
2022/05/09 01:00:31;;;;;;;3.92;2.58;;;;;;;13.93;36.15;101738.94;5067745;28;20494;-59
2022/05/09 01:03:01;;;;;;;4.60;2.63;;;;;;;13.93;36.14;101742.44;5070816;28;20904;-59
2022/05/09 01:05:29;;;;;;;4.70;2.80;;;;;;;13.88;36.27;101744.78;5070647;28;20437;-59
2022/05/09 01:07:57;;;;;;;5.95;2.72;;;;;;;13.86;36.03;101741.44;5069779;28;20498;-59
2022/05/09 01:10:29;;;;;;;6.85;3.00;;;;;;;13.82;36.43;101741.94;5069995;28;20924;-59
2022/05/09 01:12:57;;;;;;;4.07;2.90;;;;;;;13.80;36.38;101744.78;5070821;28;20981;-59
2022/05/09 01:15:25;;;;;;;5.47;2.80;;;;;;;13.77;36.19;101747.75;5068815;28;20866;-59
2022/05/09 01:17:52;;;;;;;4.60;2.60;;;;;;;13.69;36.56;101751.25;5071180;28;20761;-59
2022/05/09 01:20:19;;;;;;;3.93;2.50;;;;;;;13.66;36.16;101751.59;5070640;28;20428;-59
2022/05/09 01:22:48;;;;;;;4.40;2.70;;;;;;;13.65;36.32;101743.75;5069812;28;20458;-60
2022/05/09 01:25:17;;;;;;;3.13;2.55;;;;;;;13.63;36.61;101754.59;5069037;28;20917;-59
2022/05/09 01:27:47;;;;;;;4.63;2.40;;;;;;;13.61;36.40;101753.91;5054709;28;20457;-60
2022/05/09 01:30:19;;;;;;;4.40;2.63;;;;;;;13.57;36.72;101761.38;5068531;28;20505;-60
2022/05/09 01:32:49;;;;;;;4.88;2.83;;;;;;;13.54;36.87;101755.56;5067216;28;20472;-59
2022/05/09 01:35:22;;;;;;;5.80;3.22;;;;;;;13.45;37.04;101759.19;5069191;28;20446;-60
2022/05/09 01:37:56;;;;;;;6.13;3.00;;;;;;;13.42;37.08;101760.38;5069121;28;20451;-58
2022/05/09 01:40:23;;;;;;;5.90;3.10;;;;;;;13.37;37.07;101760.03;5068161;28;20415;-59
2022/05/09 01:42:50;;;;;;;5.57;3.03;;;;;;;13.33;37.19;101764.03;5069647;28;20419;-59
2022/05/09 01:45:17;;;;;;;5.87;3.03;;;;;;;13.30;37.39;101761.63;5066255;28;20446;-59
2022/05/09 01:50:28;;;;;;;7.25;3.65;;;;;;;13.28;37.64;101760.97;5058994;28;20869;-62
2022/05/09 01:52:57;;;;;;;8.73;3.50;;;;;;;13.23;37.46;101764.09;5050768;28;20423;-61
2022/05/09 01:55:24;;;;;;;8.38;3.30;;;;;;;13.20;37.64;101767.94;5056239;28;20436;-59
2022/05/09 01:57:51;;;;;;;6.50;3.38;;;;;;;13.14;37.80;101762.41;5058025;28;20777;-59
2022/05/09 02:00:19;;;;;;;6.28;3.47;;;;;;;13.10;37.83;101777.88;5055655;28;20445;-60
2022/05/09 02:02:46;;;;;;;6.03;3.20;;;;;;;13.07;37.92;101770.22;5061978;28;20442;-60
2022/05/09 02:05:14;;;;;;;6.85;3.60;;;;;;;13.05;38.06;101777.53;5069576;28;20423;-59
2022/05/09 02:07:41;;;;;;;7.90;3.08;;;;;;;13.07;38.14;101774.69;5068743;28;20512;-59
2022/05/09 02:10:10;;;;;;;5.47;3.30;;;;;;;13.03;38.14;101776.03;5069138;28;20472;-59
2022/05/09 02:12:37;;;;;;;7.10;3.10;;;;;;;13.00;38.29;101779.84;5067899;28;20425;-59
2022/05/09 02:15:05;;;;;;;5.20;3.20;;;;;;;12.96;38.32;101770.50;5068179;28;20462;-59
2022/05/09 02:17:32;;;;;;;4.43;3.10;;;;;;;12.88;38.42;101773.13;5067065;28;21070;-59
2022/05/09 02:19:59;;;;;;;4.90;3.03;;;;;;;12.85;38.55;101770.78;5065035;28;20430;-59
2022/05/09 02:22:27;;;;;;;6.57;3.22;;;;;;;12.79;38.61;101780.25;5068329;28;20438;-58
2022/05/09 02:24:54;;;;;;;5.80;3.33;;;;;;;12.76;38.69;101775.22;5068249;28;20430;-59
2022/05/09 02:27:23;;;;;;;5.30;3.17;;;;;;;12.73;38.67;101781.72;5067321;28;20431;-59
2022/05/09 02:29:50;;;;;;;6.32;3.35;;;;;;;12.64;38.72;101774.69;5064419;28;20430;-59
2022/05/09 02:32:17;;;;;;;4.45;3.15;;;;;;;12.61;38.83;101777.66;5066376;28;20423;-59
2022/05/09 02:34:44;;;;;;;6.72;3.60;;;;;;;12.60;38.91;101779.47;5068016;28;20414;-60
2022/05/09 02:37:11;;;;;;;4.93;3.05;;;;;;;12.60;38.85;101775.97;5066223;28;20418;-61
2022/05/09 02:39:38;;;;;;;7.93;3.22;;;;;;;12.56;38.73;101777.28;5067414;28;20417;-59
2022/05/09 02:42:06;;;;;;;6.23;3.30;;;;;;;12.54;38.88;101781.94;5066215;28;20423;-59
2022/05/09 02:44:34;;;;;;;5.20;2.83;;;;;;;12.54;38.74;101777.44;5066665;28;20419;-61
2022/05/09 02:47:01;;;;;;;9.63;3.40;;;;;;;12.55;38.75;101778.25;5065895;28;20458;-60
2022/05/09 02:49:28;;;;;;;6.43;3.15;;;;;;;12.54;38.75;101777.44;5068244;28;20795;-58
2022/05/09 02:51:55;;;;;;;7.25;3.03;;;;;;;12.55;38.81;101778.25;5068448;28;20419;-59
2022/05/09 02:54:22;;;;;;;5.60;2.97;;;;;;;12.56;38.76;101783.41;5068159;28;20916;-61
2022/05/09 02:56:49;;;;;;;8.68;3.30;;;;;;;12.55;38.76;101781.78;5068068;28;20476;-59
2022/05/09 02:59:16;;;;;;;8.13;2.97;;;;;;;12.56;38.74;101779.94;5064804;28;20451;-59
2022/05/09 03:01:44;;;;;;;5.75;3.00;;;;;;;12.54;38.82;101779.25;5065129;28;20503;-60
2022/05/09 03:06:55;;;;;;;5.97;3.50;;;;;;;12.40;38.90;101786.81;5067344;28;20809;-59
2022/05/09 03:09:22;;;;;;;5.53;2.90;;;;;;;12.39;38.93;101790.47;5067684;28;20825;-65
2022/05/09 03:11:49;;;;;;;4.30;3.00;;;;;;;12.33;39.00;101788.41;5067278;28;20920;-59
2022/05/09 03:14:16;;;;;;;4.55;2.70;;;;;;;12.27;39.25;101790.88;5064222;28;20509;-59
2022/05/09 03:16:44;;;;;;;5.15;3.00;;;;;;;12.20;39.44;101790.66;5067261;28;20487;-60
2022/05/09 03:19:11;;;;;;;5.43;3.28;;;;;;;12.19;39.24;101797.81;5067407;28;20417;-59
2022/05/09 03:21:38;;;;;;;4.80;2.97;;;;;;;12.18;39.29;101793.47;5068183;28;20419;-59
2022/05/09 03:24:06;;;;;;;5.95;3.33;;;;;;;12.22;39.29;101788.66;5068383;28;20522;-60
2022/05/09 03:26:33;;;;;;;4.53;3.10;;;;;;;12.21;39.20;101801.13;5068115;28;20478;-60
2022/05/09 03:29:00;;;;;;;4.53;2.80;;;;;;;12.12;39.35;101787.91;5067024;28;20430;-60
2022/05/09 03:31:27;;;;;;;5.25;2.95;;;;;;;12.19;39.30;101799.59;5067040;28;20433;-58
2022/05/09 03:33:56;;;;;;;5.15;2.95;;;;;;;12.29;39.18;101796.88;5068842;28;20501;-59
2022/05/09 03:36:22;;;;;;;6.78;3.50;;;;;;;12.33;39.27;101801.72;5068517;28;20419;-60
2022/05/09 03:38:50;;;;;;;7.55;3.05;;;;;;;12.44;39.33;101803.28;5067373;28;20415;-59
2022/05/09 03:41:16;;;;;;;6.28;3.03;;;;;;;12.50;39.46;101799.19;5064068;28;20429;-59
2022/05/09 03:43:43;;;;;;;7.38;3.53;;;;;;;12.58;39.44;101813.34;5065475;28;20423;-60
2022/05/09 03:46:10;;;;;;;8.13;3.20;;;;;;;12.66;39.32;101809.06;5062225;28;20431;-59
2022/05/09 03:48:37;;;;;;;8.63;3.63;;;;;;;12.78;39.11;101816.66;5067010;28;20469;-59
2022/05/09 03:51:06;;;;;;;6.27;3.10;;;;;;;12.92;39.17;101819.72;5067031;28;20430;-59
2022/05/09 03:53:33;;;;;;;7.22;3.55;;;;;;;13.01;38.87;101822.25;5070438;28;20862;-59
2022/05/09 03:56:01;;;;;;;8.20;3.53;;;;;;;13.12;38.94;101823.81;5070873;28;20920;-58
2022/05/09 03:58:28;;;;;;;7.65;3.58;;;;;;;13.23;39.01;101820.03;5068409;28;20800;-60
2022/05/09 04:00:55;;;;;;;10.50;3.47;;;;;;;13.38;38.87;101815.78;5066775;28;20433;-58
2022/05/09 04:03:22;;;;;;;7.10;3.10;;;;;;;13.53;38.79;101823.16;5066517;28;20419;-61
2022/05/09 04:05:50;;;;;;;5.43;3.20;;;;;;;13.74;38.48;101812.06;5069373;28;20425;-60
2022/05/09 04:08:21;;;;;;;7.20;3.30;;;;;;;14.00;37.66;101816.44;5065347;28;20510;-60
2022/05/09 04:10:50;;;;;;;6.85;3.03;;;;;;;14.18;37.03;101817.09;5068246;28;20999;-60
2022/05/09 04:13:17;;;;;;;7.15;3.30;;;;;;;14.36;37.13;101816.09;5066970;28;20797;-59
2022/05/09 04:18:37;;;;;;;6.40;3.53;;;;;;;15.01;36.38;101820.50;5051435;28;20461;-59
2022/05/09 04:21:04;;;;;;;6.32;3.78;;;;;;;15.24;34.96;101826.75;5051941;28;20499;-59
2022/05/09 04:23:33;;;;;;;11.30;4.15;;;;;;;15.48;35.11;101823.16;5065542;28;20415;-59
2022/05/09 04:26:00;;;;;;;9.05;3.83;;;;;;;15.74;35.41;101822.03;5054634;28;20430;-60
2022/05/09 04:28:27;;;;;;;7.03;3.58;;;;;;;16.15;34.68;101826.22;5067781;28;20425;-60
2022/05/09 04:30:54;;;;;;;9.48;3.78;;;;;;;16.43;33.97;101821.97;5068423;28;20437;-61
2022/05/09 04:33:21;;;;;;;9.50;3.30;;;;;;;16.79;33.69;101823.13;5068381;28;20447;-60
2022/05/09 04:35:49;;;;;;;4.75;2.97;;;;;;;16.90;33.25;101820.00;5067051;28;20410;-60
2022/05/09 04:38:21;;;;;;;6.13;3.83;;;;;;;17.03;32.50;101822.03;5068826;28;20414;-61
2022/05/09 04:40:51;;;;;;;5.90;3.65;;;;;;;17.24;31.87;101825.81;5066188;28;20433;-60
2022/05/09 04:43:19;;;;;;;8.85;4.25;;;;;;;17.39;32.08;101821.25;5068806;28;20457;-61
2022/05/09 04:45:48;;;;;;;10.00;4.22;;;;;;;17.64;32.14;101834.34;5066006;28;20419;-60
2022/05/09 04:48:15;;;;;;;9.40;5.07;;;;;;;17.95;31.63;101834.91;5068487;28;20441;-61
2022/05/09 04:50:42;;;;;;;9.07;5.03;;;;;;;18.35;31.27;101842.50;5069673;28;20856;-60
2022/05/09 04:53:10;;;;;;;7.85;4.40;;;;;;;18.75;32.46;101831.22;5063262;28;20444;-62
2022/05/09 04:55:36;;;;;;;10.98;5.22;;;;;;;19.06;31.30;101830.78;5068459;28;20407;-60
2022/05/09 04:58:05;;;;;;;7.50;4.43;;;;;;;19.33;31.04;101829.06;5069700;28;20423;-59
2022/05/09 05:00:33;;;;;;;9.25;4.75;;;;;;;19.74;29.42;101832.75;5069781;28;20417;-60
2022/05/09 05:03:00;;;;;;;11.88;4.70;;;;;;;20.00;29.51;101837.31;5066386;28;20423;-60
2022/05/09 05:05:27;;;;;;;9.65;4.68;;;;;;;20.44;28.94;101834.03;5070880;28;20521;-59
2022/05/09 05:07:55;;;;;;;13.25;4.50;;;;;;;20.67;28.08;101829.25;5064355;28;20464;-60
2022/05/09 05:10:22;;;;;;;7.28;4.30;;;;;;;20.99;28.40;101830.22;5068504;28;20946;-61
2022/05/09 05:12:49;;;;;;;15.63;5.40;;;;;;;21.55;28.19;101831.47;5066967;28;20419;-60
2022/05/09 05:15:18;;;;;;;8.02;4.85;;;;;;;21.86;26.92;101832.53;5065265;28;20422;-61
2022/05/09 05:17:45;;;;;;;9.50;5.00;;;;;;;22.14;25.88;101843.75;5065836;28;20450;-62
2022/05/09 05:20:14;;;;;;;14.13;5.07;;;;;;;22.50;25.98;101834.13;5057730;28;20926;-59
2022/05/09 05:22:43;;;;;;;13.50;5.90;;;;;;;22.79;25.63;101837.16;5057761;28;20512;-60
2022/05/09 05:25:12;;;;;;;10.32;5.75;;;;;;;23.08;25.39;101832.94;5054088;28;20427;-60
2022/05/09 05:27:39;;;;;;;13.18;5.90;;;;;;;23.30;24.58;101827.06;5053548;28;20463;-60
2022/05/09 05:30:09;;;;;;;19.42;7.97;;;;;;;23.73;24.64;101831.44;5069221;28;20415;-60
2022/05/09 05:32:41;;;;;;;12.18;6.57;;;;;;;24.03;23.61;101833.31;5070417;28;20445;-60
2022/05/09 05:35:10;;;;;;;20.77;7.07;;;;;;;24.29;23.38;101832.06;5068041;28;20424;-60
2022/05/09 05:37:38;;;;;;;14.32;6.38;;;;;;;24.52;23.32;101835.81;5067724;28;20848;-60
2022/05/09 05:40:05;;;;;;;14.48;7.35;;;;;;;24.93;22.62;101836.75;5070513;28;20457;-60
2022/05/09 05:42:33;;;;;;;19.85;7.65;;;;;;;25.35;23.01;101837.38;5069875;28;20523;-60
2022/05/09 05:45:00;;;;;;;15.40;6.72;;;;;;;25.55;21.94;101839.66;5068620;28;20430;-60
2022/05/09 05:47:27;;;;;;;13.13;6.32;;;;;;;25.55;21.39;101836.94;5067904;28;21014;-60
2022/05/09 05:49:57;;;;;;;14.63;6.65;;;;;;;25.66;21.99;101842.53;5068472;28;20422;-60
2022/05/09 05:52:24;;;;;;;12.23;6.55;;;;;;;25.52;21.64;101834.72;5065341;28;20429;-60
2022/05/09 05:54:51;;;;;;;11.07;6.45;;;;;;;25.75;21.55;101831.06;5069476;28;20427;-61
2022/05/09 05:57:21;;;;;;;13.25;6.75;;;;;;;26.10;21.85;101842.81;5069276;28;20414;-58
2022/05/09 05:59:49;;;;;;;17.10;7.60;;;;;;;26.67;20.80;101837.19;5069483;28;20762;-61
2022/05/09 06:02:16;;;;;;;12.43;6.72;;;;;;;27.01;20.25;101844.41;5070262;28;20415;-59
2022/05/09 06:04:43;;;;;;;14.85;7.13;;;;;;;27.35;20.06;101834.25;5065192;28;20425;-59
2022/05/09 06:07:13;;;;;;;13.48;6.00;;;;;;;27.72;20.00;101835.41;5067336;28;20442;-60
2022/05/09 06:09:40;;;;;;;11.23;5.80;;;;;;;28.11;20.23;101841.50;5069812;28;20410;-62
2022/05/09 06:12:08;;;;;;;14.13;6.65;;;;;;;28.43;19.07;101832.44;5066733;28;20414;-59
2022/05/09 06:14:37;;;;;;;9.50;5.72;;;;;;;28.64;18.81;101832.63;5069185;28;20415;-60
2022/05/09 06:17:04;;;;;;;12.90;5.95;;;;;;;28.85;18.80;101831.63;5068215;28;20426;-59
2022/05/09 06:19:31;;;;;;;10.57;5.55;;;;;;;29.17;18.38;101825.22;5068829;28;20904;-59
2022/05/09 06:21:59;;;;;;;13.45;6.25;;;;;;;29.45;18.08;101829.38;5062976;28;20462;-59
2022/05/09 06:24:28;;;;;;;13.05;5.72;;;;;;;29.65;17.85;101831.31;5069801;28;20539;-61
2022/05/09 06:26:55;;;;;;;12.65;5.82;;;;;;;30.00;17.56;101827.00;5065448;28;20463;-60
2022/05/09 06:29:23;;;;;;;13.38;6.70;;;;;;;30.34;17.54;101833.81;5069195;28;20411;-58
2022/05/09 06:31:50;;;;;;;9.77;5.65;;;;;;;30.50;18.06;101835.41;5065913;28;20476;-58
2022/05/09 06:34:17;;;;;;;12.65;5.70;;;;;;;30.79;17.89;101841.09;5068709;28;20446;-59
2022/05/09 06:36:44;;;;;;;10.17;5.10;;;;;;;30.87;18.17;101839.69;5066955;28;20422;-57
2022/05/09 06:39:13;;;;;;;9.90;5.13;;;;;;;30.33;19.37;101843.91;5066771;28;20429;-58
2022/05/09 06:41:41;;;;;;;9.55;4.60;;;;;;;30.06;19.30;101836.84;5069177;28;20415;-59
2022/05/09 06:44:09;;;;;;;9.75;5.05;;;;;;;29.80;18.74;101840.66;5067293;28;20962;-61
2022/05/09 06:46:36;;;;;;;6.47;3.77;;;;;;;29.53;18.42;101848.00;5068381;28;20422;-59
2022/05/09 06:49:04;;;;;;;6.85;3.97;;;;;;;29.53;19.01;101842.53;5068151;28;20411;-59
2022/05/09 06:51:30;;;;;;;8.43;3.40;;;;;;;29.69;18.41;101843.38;5067745;28;20443;-60
2022/05/09 06:53:57;;;;;;;7.27;3.90;;;;;;;29.53;18.31;101845.25;5067155;28;20789;-61
2022/05/09 06:56:24;;;;;;;10.40;3.92;;;;;;;29.73;18.71;101841.72;5068689;28;20411;-59
2022/05/09 06:58:53;;;;;;;8.93;3.65;;;;;;;29.70;18.31;101838.72;5067792;28;20418;-64
2022/05/09 07:01:21;;;;;;;6.68;3.83;;;;;;;29.33;17.89;101850.66;5064186;28;20421;-59
2022/05/09 07:03:48;;;;;;;9.02;4.25;;;;;;;29.06;18.72;101851.63;5065586;28;20861;-59
2022/05/09 07:06:16;;;;;;;5.45;3.25;;;;;;;28.89;18.86;101856.47;5064820;28;20419;-60
2022/05/09 07:08:43;;;;;;;8.95;3.45;;;;;;;28.58;18.58;101853.59;5063262;28;20986;-59
2022/05/09 07:11:12;;;;;;;9.13;3.40;;;;;;;28.28;18.71;101856.91;5067633;28;20508;-59
2022/05/09 07:13:40;;;;;;;6.25;3.45;;;;;;;27.69;19.33;101855.81;5067562;28;20804;-58
2022/05/09 07:16:08;;;;;;;5.93;3.07;;;;;;;26.80;19.65;101859.66;5067355;28;20431;-59
2022/05/09 07:18:36;;;;;;;5.83;3.17;;;;;;;26.17;19.91;101862.50;5068629;28;20422;-59
2022/05/09 07:21:03;;;;;;;5.75;3.10;;;;;;;26.16;20.25;101855.41;5066445;28;20433;-60
2022/05/09 07:25:28;;;;;;;4.10;2.90;;;;;;;24.94;21.68;101852.81;5076446;28;20411;-58
2022/05/09 07:27:55;;;;;;;7.22;2.90;;;;;;;24.73;22.06;101854.22;5062213;28;20481;-59
2022/05/09 07:30:23;;;;;;;7.15;2.95;;;;;;;24.66;22.15;101852.72;5058982;28;20494;-58
2022/05/09 07:32:52;;;;;;;6.10;2.65;;;;;;;24.37;22.95;101855.28;5064751;28;20507;-60
2022/05/09 07:35:19;;;;;;;4.15;2.65;;;;;;;24.25;23.49;101852.53;5063403;28;20465;-59
2022/05/09 07:37:47;;;;;;;7.25;2.95;;;;;;;24.08;23.50;101852.41;5065735;28;20481;-60
2022/05/09 07:40:15;;;;;;;4.97;3.20;;;;;;;23.46;24.21;101848.06;5064627;28;20474;-61
2022/05/09 07:42:45;;;;;;;10.57;3.22;;;;;;;23.08;24.69;101854.56;5060147;28;20451;-59
2022/05/09 07:45:14;;;;;;;6.35;3.15;;;;;;;23.26;24.71;101852.88;5062227;28;20471;-61
2022/05/09 07:47:41;;;;;;;6.28;3.20;;;;;;;22.84;25.50;101861.66;5060861;28;20438;-60
2022/05/09 07:50:10;;;;;;;8.73;3.45;;;;;;;23.00;25.79;101854.81;5060709;28;20427;-60
2022/05/09 07:52:37;;;;;;;6.35;3.20;;;;;;;22.99;25.68;101857.75;5061808;28;20463;-60
2022/05/09 07:55:05;;;;;;;5.13;3.10;;;;;;;23.01;25.85;101855.63;5062290;28;20485;-61
2022/05/09 07:57:32;;;;;;;8.98;3.22;;;;;;;23.12;26.04;101849.53;5060559;28;20432;-61
2022/05/09 08:00:00;;;;;;;6.55;3.35;;;;;;;23.06;25.87;101853.94;5062084;28;20420;-59
2022/05/09 08:02:27;;;;;;;5.75;2.88;;;;;;;22.94;26.37;101857.59;5061167;28;20459;-60
2022/05/09 08:04:54;;;;;;;6.90;3.30;;;;;;;22.89;26.48;101859.09;5059852;28;20523;-61
2022/05/09 08:07:21;;;;;;;6.93;3.10;;;;;;;22.86;26.75;101850.63;5059873;28;20477;-62
2022/05/09 08:09:48;;;;;;;6.43;3.13;;;;;;;22.76;26.56;101855.69;5061954;28;20451;-62
2022/05/09 08:12:15;;;;;;;6.35;2.80;;;;;;;22.85;26.75;101857.91;5060195;28;20813;-60
2022/05/09 08:14:43;;;;;;;8.10;3.30;;;;;;;22.97;26.81;101849.03;5053984;28;20420;-61
2022/05/09 08:17:11;;;;;;;5.73;3.07;;;;;;;23.03;26.66;101846.28;5059532;28;20427;-61
2022/05/09 08:19:39;;;;;;;5.35;3.00;;;;;;;23.13;26.78;101843.06;5058328;28;20423;-60
2022/05/09 08:22:07;;;;;;;6.33;3.13;;;;;;;23.17;26.62;101844.25;5060777;28;20435;-62
2022/05/09 08:24:34;;;;;;;6.45;3.00;;;;;;;22.98;26.85;101842.59;5073575;28;20496;-61
2022/05/09 08:27:01;;;;;;;7.47;3.40;;;;;;;22.94;26.85;101849.47;5079184;28;20892;-62
2022/05/09 08:29:28;;;;;;;5.83;2.80;;;;;;;22.99;27.14;101845.03;5082894;28;20454;-61
2022/05/09 08:31:55;;;;;;;7.97;3.00;;;;;;;23.06;27.42;101836.91;5082574;28;20418;-60
2022/05/09 08:34:24;;;;;;;8.32;3.50;;;;;;;23.21;27.43;101833.78;5081534;28;20441;-62
2022/05/09 08:36:53;;;;;;;5.20;3.10;;;;;;;22.91;27.15;101838.06;5067284;28;20508;-61
2022/05/09 08:39:21;;;;;;;7.30;3.20;;;;;;;22.85;27.64;101841.69;5067666;28;20426;-61
2022/05/09 08:41:55;;;;;;;5.93;3.08;;;;;;;22.89;27.75;101837.47;5068075;28;20406;-62
2022/05/09 08:44:41;;;;;;;7.27;2.80;;;;;;;22.98;27.64;101838.00;5067217;28;20819;-61
2022/05/09 08:47:41;;;;;;;5.25;2.97;;;;;;;22.71;27.79;101837.47;5066154;28;20578;-60
2022/05/09 08:50:19;;;;;;;6.13;2.80;;;;;;;23.08;27.65;101832.09;5062301;28;20483;-63
2022/05/09 08:52:49;;;;;;;11.15;3.03;;;;;;;23.11;27.55;101830.81;5064144;28;20458;-60
2022/05/09 08:55:19;;;;;;;6.57;2.90;;;;;;;23.12;27.18;101824.34;5068032;28;20415;-60
2022/05/09 08:57:50;;;;;;;6.70;2.60;;;;;;;23.14;27.39;101830.34;5068087;28;20450;-60
2022/05/09 09:00:20;;;;;;;6.22;2.42;;;;;;;23.03;27.63;101830.03;5066363;28;20427;-59
2022/05/09 09:02:57;;;;;;;6.28;2.97;;;;;;;23.29;27.11;101836.22;5065429;28;20434;-61
2022/05/09 09:05:29;;;;;;;6.83;2.60;;;;;;;23.34;27.17;101832.84;5061458;28;20438;-61
2022/05/09 09:08:06;;;;;;;7.93;2.70;;;;;;;23.24;27.04;101831.47;5065837;28;20485;-61
2022/05/09 09:10:49;;;;;;;5.13;2.35;;;;;;;23.46;27.04;101836.38;5067472;28;20407;-61
2022/05/09 09:13:38;;;;;;;5.10;2.53;;;;;;;23.57;26.62;101838.34;5066234;28;21203;-61
2022/05/09 09:16:19;;;;;;;6.32;2.35;;;;;;;23.62;26.00;101826.81;5067584;28;20412;-59
2022/05/09 09:19:07;;;;;;;3.75;2.30;;;;;;;23.62;26.05;101819.53;5067256;28;20498;-61
2022/05/09 09:21:49;;;;;;;6.20;2.33;;;;;;;23.42;26.54;101822.50;5062266;28;20818;-63
2022/05/09 09:24:40;;;;;;;3.97;2.20;;;;;;;23.66;26.69;101826.13;5064936;28;20950;-61
2022/05/09 09:27:20;;;;;;;7.35;2.88;;;;;;;23.92;26.94;101823.28;5066961;28;20414;-65
2022/05/09 09:29:51;;;;;;;7.82;2.78;;;;;;;23.57;27.09;101830.22;5065415;28;20463;-65
2022/05/09 09:32:20;;;;;;;7.80;2.80;;;;;;;23.61;27.45;101822.47;5066103;28;20437;-63
2022/05/09 09:34:53;;;;;;;6.20;3.13;;;;;;;23.57;27.44;101821.25;5067312;28;20463;-63
2022/05/09 09:37:30;;;;;;;6.43;2.80;;;;;;;23.76;26.90;101816.63;5066479;28;20439;-65
2022/05/09 09:39:57;;;;;;;4.38;2.60;;;;;;;23.85;26.45;101816.06;5065525;28;20419;-64
2022/05/09 09:42:24;;;;;;;6.75;2.75;;;;;;;24.10;26.20;101823.19;5063981;28;20429;-63
2022/05/09 09:44:54;;;;;;;5.38;2.80;;;;;;;24.08;25.98;101816.38;5064756;28;20434;-64
2022/05/09 09:47:26;;;;;;;4.83;2.00;;;;;;;23.89;25.52;101816.44;5065688;28;20505;-64
2022/05/09 09:50:13;;;;;;;5.18;2.08;;;;;;;24.16;25.46;101813.31;5065941;28;20860;-64
2022/05/09 09:52:47;;;;;;;8.45;2.42;;;;;;;24.03;25.98;101814.34;5063931;28;20429;-62
2022/05/09 09:55:24;;;;;;;5.03;2.10;;;;;;;23.97;25.94;101808.00;5065791;28;20489;-62
2022/05/09 09:57:51;;;;;;;4.90;2.20;;;;;;;24.17;25.28;101813.06;5065583;28;20426;-64
2022/05/09 10:00:21;;;;;;;4.47;2.15;;;;;;;24.28;24.75;101802.47;5065976;28;20498;-64
2022/05/09 10:02:49;;;;;;;7.28;2.38;;;;;;;24.12;25.16;101799.41;5065613;28;20924;-64
2022/05/09 10:05:20;;;;;;;4.35;1.92;;;;;;;23.93;25.29;101795.13;5060728;28;20515;-64
2022/05/09 10:07:49;;;;;;;5.85;1.92;;;;;;;24.18;25.20;101790.34;5065257;28;20458;-63
2022/05/09 10:10:18;;;;;;;3.42;2.10;;;;;;;24.17;25.29;101799.53;5063603;28;20955;-62
2022/05/09 10:12:48;;;;;;;3.47;2.20;;;;;;;24.03;26.13;101788.09;5063816;28;20427;-63
2022/05/09 10:15:39;;;;;;;4.83;2.10;;;;;;;24.45;25.71;101786.31;5065237;28;20507;-63
2022/05/09 10:18:19;;;;;;;5.43;2.75;;;;;;;24.70;25.31;101786.91;5062046;28;20564;-64
2022/05/09 10:20:48;;;;;;;3.97;2.20;;;;;;;24.86;24.87;101777.22;5065649;28;20843;-62
2022/05/09 10:26:07;;;;;;;3.67;1.90;;;;;;;24.86;23.90;101781.81;5064164;28;20442;-65
2022/05/09 10:28:38;;;;;;;4.40;2.22;;;;;;;24.76;23.90;101782.44;5063966;28;20873;-63
2022/05/09 10:31:16;;;;;;;3.92;1.80;;;;;;;24.90;23.63;101774.84;5063328;28;20437;-63
2022/05/09 10:33:48;;;;;;;5.07;2.17;;;;;;;24.97;23.21;101768.25;5062722;28;21080;-62
2022/05/09 10:36:21;;;;;;;7.82;2.47;;;;;;;25.09;23.72;101772.78;5064609;28;20869;-63
2022/05/09 10:38:57;;;;;;;3.08;1.85;;;;;;;24.88;23.12;101768.84;5065748;28;20504;-62
2022/05/09 10:41:32;;;;;;;3.47;2.08;;;;;;;24.98;23.27;101760.91;5062964;28;20426;-65
2022/05/09 10:44:07;;;;;;;3.50;1.95;;;;;;;24.95;23.75;101761.41;5065705;28;20464;-64
2022/05/09 10:46:41;;;;;;;4.30;2.10;;;;;;;25.05;23.85;101766.19;5063454;28;20458;-65
2022/05/09 10:49:20;;;;;;;4.35;2.13;;;;;;;25.19;23.42;101757.53;5063621;28;20437;-64
2022/05/09 10:51:56;;;;;;;7.55;3.45;;;;;;;25.18;23.78;101761.31;5061630;28;20433;-63
2022/05/09 10:54:31;;;;;;;4.35;2.10;;;;;;;25.08;24.05;101763.81;5062788;28;21259;-64
2022/05/09 10:57:06;;;;;;;4.78;2.13;;;;;;;24.93;23.84;101752.69;5064221;28;20959;-64
2022/05/09 10:59:40;;;;;;;4.70;2.10;;;;;;;25.03;24.27;101749.31;5065171;28;20425;-64
2022/05/09 11:02:15;;;;;;;5.50;2.23;;;;;;;25.06;23.87;101746.97;5062375;28;20422;-64
2022/05/09 11:04:42;;;;;;;8.15;2.30;;;;;;;25.18;24.10;101753.16;5064441;28;20485;-65
2022/05/09 11:07:22;;;;;;;4.90;2.15;;;;;;;24.96;23.78;101741.34;5063373;28;20529;-62
2022/05/09 11:10:02;;;;;;;6.53;2.28;;;;;;;24.70;23.64;101738.09;5058390;28;20443;-65
2022/05/09 11:12:53;;;;;;;4.40;1.90;;;;;;;25.02;23.26;101737.66;5050963;28;20428;-64
2022/05/09 11:15:31;;;;;;;4.93;2.20;;;;;;;25.07;23.40;101734.25;5055744;28;20450;-66
2022/05/09 11:18:28;;;;;;;4.28;2.00;;;;;;;25.25;23.17;101734.06;5063837;28;20429;-65
2022/05/09 11:21:03;;;;;;;5.10;2.03;;;;;;;25.35;23.38;101728.81;5057712;28;20488;-64
2022/05/09 11:23:36;;;;;;;4.95;2.03;;;;;;;25.22;22.91;101730.97;5063899;28;20458;-63
2022/05/09 11:26:13;;;;;;;5.18;2.10;;;;;;;25.17;23.38;101735.25;5062867;28;20573;-62
2022/05/09 11:29:11;;;;;;;4.93;2.00;;;;;;;25.12;23.05;101727.00;5060483;28;20939;-62
2022/05/09 11:32:09;;;;;;;4.75;1.90;;;;;;;25.06;23.23;101724.44;5062465;28;20450;-63
2022/05/09 11:35:35;;;;;;;4.75;1.85;;;;;;;25.13;23.29;101712.38;5131506;27;20395;-64
2022/05/09 11:38:15;;;;;;;4.55;1.92;;;;;;;25.33;23.05;101714.66;5051769;28;20420;-65
2022/05/09 11:40:54;;;;;;;3.72;1.75;;;;;;;25.40;22.58;101714.50;5115643;28;20913;-66
2022/05/09 11:43:38;;;;;;;4.20;2.00;;;;;;;25.39;22.29;101715.59;5123023;28;20425;-67
2022/05/09 11:46:26;;;;;;;5.32;2.10;;;;;;;25.56;23.01;101700.09;5120799;28;20458;-65
2022/05/09 11:49:06;;;;;;;5.00;1.98;;;;;;;25.43;21.87;101699.63;5121931;28;20422;-65
2022/05/09 11:51:45;;;;;;;4.18;1.63;;;;;;;25.31;22.37;101696.97;5122874;28;20796;-65